CheckWX is a tool to help pilots better visualize weather data.  It is not intended as a substitute for an official pre-flight weather briefing.

08:04:47 UTC

KHIB TAF
Range Regional Airport
Hibbing, Minnesota, USA
KHIB 190536Z 1906/2006 VRB03KT P6SM BKN150 FM191300 00000KT P6SM BKN015 FM192000 24006KT P6SM VCSH BKN020 FM200400 26007KT P6SM VCSH BKN018

Mar-19@
06:00 UTC

Mar-19 @ 06:00 UTC

Mar-19@
13:00 UTC

Mar-19 @ 13:00 UTC

KHIB 190536Z 1906/2006 VRB03KT P6SM BKN150
Wind
  • Variable at 3 KTS
Cloud Levels
  • Broken at 15,000' AGL

Mar-19@
13:00 UTC

Mar-19 @ 13:00 UTC

Mar-19@
20:00 UTC

Mar-19 @ 20:00 UTC

FM191300 00000KT P6SM BKN015

From

From Standard forecast or significant change

Cloud Levels
  • Broken at 1,500' AGL

Mar-19@
20:00 UTC

Mar-19 @ 20:00 UTC

Mar-20@
04:00 UTC

Mar-20 @ 04:00 UTC

FM192000 24006KT P6SM VCSH BKN020

From

From Standard forecast or significant change

Wind
  • 240° at 6 KTS
Cloud Levels
  • Broken at 2,000' AGL

Mar-20@
04:00 UTC

Mar-20 @ 04:00 UTC

Mar-20@
06:00 UTC

Mar-20 @ 06:00 UTC

FM200400 26007KT P6SM VCSH BKN018

From

From Standard forecast or significant change

Wind
  • 260° at 7 KTS
Cloud Levels
  • Broken at 1,800' AGL